This is the latest recevied weather packets stored in our database for station/object N8RJC-13. If no packets are shown the sender has not sent any weather packets the latest 1 day(s).
| Time | Temp. | Humidity | Pressure | Rain* | Wind** | Luminosity | Snow |
|---|---|---|---|---|---|---|---|
| 1778040321 | 10° C | 95% | 984.1 hPa | 4.06 mm | 0.89 m/s, 342° | - | - |
| 1778040261 | 10° C | 94% | 983.8 hPa | 2.79 mm | 2.68 m/s, 341° | - | - |
| 1778040201 | 10° C | 94% | 983.8 hPa | 2.79 mm | 2.68 m/s, 341° | - | - |
| 1778040141 | 10° C | 94% | 983.8 hPa | 2.79 mm | 2.68 m/s, 341° | - | - |
| 1778040080 | 10° C | 94% | 983.8 hPa | 2.79 mm | 2.68 m/s, 341° | - | - |
| 1778040021 | 10° C | 94% | 984 hPa | 4.57 mm | 0.45 m/s, 327° | - | - |
| 1778039961 | 10° C | 94% | 984 hPa | 4.57 mm | 0.45 m/s, 327° | - | - |
| 1778039900 | 10° C | 94% | 984 hPa | 4.57 mm | 0.45 m/s, 327° | - | - |
| 1778039841 | 10° C | 94% | 984 hPa | 4.57 mm | 0.45 m/s, 327° | - | - |
| 1778039781 | 10° C | 94% | 984 hPa | 4.57 mm | 0.45 m/s, 327° | - | - |
| 1778039721 | 10° C | 94% | 984 hPa | 4.57 mm | 0.45 m/s, 327° | - | - |
| 1778039661 | 10° C | 94% | 983.8 hPa | 5.84 mm | 0.89 m/s, 332° | - | - |
| 1778039600 | 10° C | 94% | 983.8 hPa | 5.84 mm | 0.89 m/s, 332° | - | - |
| 1778039541 | 10° C | 94% | 983.8 hPa | 5.84 mm | 0.89 m/s, 332° | - | - |
| 1778039480 | 10° C | 94% | 983.8 hPa | 5.84 mm | 0.89 m/s, 332° | - | - |
| 1778039421 | 10° C | 94% | 983.8 hPa | 5.84 mm | 0.89 m/s, 332° | - | - |
| 1778039361 | 10° C | 94% | 983.5 hPa | 4.06 mm | 0.89 m/s, 323° | - | - |
| 1778039301 | 10° C | 94% | 983.5 hPa | 4.06 mm | 0.89 m/s, 323° | - | - |
| 1778039240 | 10° C | 94% | 983.5 hPa | 4.06 mm | 0.89 m/s, 323° | - | - |
| 1778039181 | 10° C | 94% | 983.5 hPa | 4.06 mm | 0.89 m/s, 323° | - | - |
| 1778039121 | 10° C | 94% | 983.5 hPa | 4.06 mm | 0.89 m/s, 323° | - | - |
| 1778039061 | 10° C | 94% | 983.7 hPa | 1.02 mm | 1.79 m/s, 4° | - | - |
| 1778039000 | 10° C | 94% | 983.7 hPa | 1.02 mm | 1.79 m/s, 4° | - | - |
| 1778038941 | 10° C | 94% | 983.7 hPa | 1.02 mm | 1.79 m/s, 4° | - | - |
| 1778038881 | 10° C | 94% | 983.7 hPa | 1.02 mm | 1.79 m/s, 4° | - | - |
* Rain latest hour (hover to see other rain measurements)
** Current wind speed in m/s (hover to see current wind gust speed)